createdAt,value
2018-12-17T00:00:37.729Z,9.88
2018-12-17T00:03:05.864Z,8.18
2018-12-17T00:05:34.027Z,9.53
2018-12-17T00:08:02.294Z,11.08
2018-12-17T00:10:30.331Z,7.67
2018-12-17T00:12:58.333Z,6.95
2018-12-17T00:15:26.486Z,6.10
2018-12-17T00:17:54.533Z,6.00
2018-12-17T00:20:22.560Z,7.03
2018-12-17T00:22:50.603Z,4.00
2018-12-17T00:25:18.635Z,11.97
2018-12-17T00:27:46.657Z,10.75
2018-12-17T00:30:14.795Z,5.28
2018-12-17T00:32:42.834Z,2.98
2018-12-17T00:35:10.933Z,10.72
2018-12-17T00:37:38.965Z,8.68
2018-12-17T00:40:07.834Z,8.68
2018-12-17T00:42:35.853Z,5.72
2018-12-17T00:45:04.241Z,6.67
2018-12-17T00:47:32.266Z,7.15
2018-12-17T00:50:00.287Z,10.18
2018-12-17T00:52:28.399Z,11.53
2018-12-17T00:54:56.488Z,10.00
2018-12-17T00:57:24.514Z,7.35
2018-12-17T00:59:52.531Z,8.93
2018-12-17T01:02:20.621Z,4.15
2018-12-17T01:04:48.633Z,7.53
2018-12-17T01:07:18.870Z,4.80
2018-12-17T01:09:46.958Z,4.58
2018-12-17T01:12:14.978Z,5.12
2018-12-17T01:14:43.002Z,6.80
2018-12-17T01:17:11.086Z,7.10
2018-12-17T01:19:39.146Z,6.62
2018-12-17T01:22:07.234Z,8.18
2018-12-17T01:24:35.275Z,7.30
2018-12-17T01:27:03.398Z,6.67
2018-12-17T01:29:31.424Z,6.28
2018-12-17T01:31:59.507Z,9.70
2018-12-17T01:34:27.521Z,5.60
2018-12-17T01:36:55.646Z,4.90
2018-12-17T01:39:23.661Z,8.30
2018-12-17T01:41:51.764Z,4.00
2018-12-17T01:44:19.779Z,8.75
2018-12-17T01:46:47.873Z,9.58
2018-12-17T01:49:15.891Z,12.45
2018-12-17T01:51:43.993Z,5.35
2018-12-17T01:54:11.997Z,7.67
2018-12-17T01:56:40.025Z,7.70
2018-12-17T01:59:08.126Z,6.42
2018-12-17T02:01:36.317Z,10.72
2018-12-17T02:04:04.406Z,5.72
2018-12-17T02:06:32.429Z,10.98
2018-12-17T02:09:00.454Z,18.32
2018-12-17T02:11:28.539Z,9.65
2018-12-17T02:13:56.562Z,9.45
2018-12-17T02:16:24.590Z,7.75
2018-12-17T02:18:52.622Z,4.42
2018-12-17T02:21:20.659Z,2.02
2018-12-17T02:23:48.744Z,6.08
2018-12-17T02:26:16.786Z,5.45
2018-12-17T02:28:44.807Z,4.50
2018-12-17T02:31:12.832Z,4.85
2018-12-17T02:33:40.865Z,9.98
2018-12-17T02:36:08.990Z,7.62
2018-12-17T02:38:37.166Z,3.95
2018-12-17T02:41:05.186Z,2.77
2018-12-17T02:43:33.218Z,5.78
2018-12-17T02:46:01.305Z,2.17
2018-12-17T02:48:29.341Z,2.92
2018-12-17T02:50:57.357Z,2.47
2018-12-17T02:53:25.503Z,5.00
2018-12-17T02:55:53.572Z,4.62
2018-12-17T02:58:21.666Z,5.90
2018-12-17T03:00:49.752Z,4.72
2018-12-17T03:03:17.871Z,13.93
2018-12-17T03:05:46.080Z,8.65
2018-12-17T03:08:14.110Z,7.47
2018-12-17T03:10:42.124Z,7.45
2018-12-17T03:13:10.168Z,7.08
2018-12-17T03:15:38.290Z,9.70
2018-12-17T03:18:06.391Z,13.32
2018-12-17T03:20:34.489Z,13.68
2018-12-17T03:23:02.525Z,12.10
2018-12-17T03:25:30.682Z,9.78
2018-12-17T03:27:58.721Z,17.30
2018-12-17T03:30:26.808Z,9.08
2018-12-17T03:32:55.126Z,5.15
2018-12-17T03:35:23.249Z,8.68
2018-12-17T03:37:51.325Z,4.80
2018-12-17T03:40:19.570Z,4.70
2018-12-17T03:42:47.609Z,11.45
2018-12-17T03:45:15.698Z,8.78
2018-12-17T03:47:43.823Z,5.08
2018-12-17T03:50:11.920Z,13.40
2018-12-17T03:52:39.955Z,10.85
2018-12-17T03:55:08.118Z,8.38
2018-12-17T03:57:36.142Z,7.15
2018-12-17T04:02:50.974Z,3.62
2018-12-17T04:05:19.053Z,6.22
2018-12-17T04:07:47.184Z,2.42
2018-12-17T04:10:15.302Z,5.37
2018-12-17T04:12:43.334Z,4.00
2018-12-17T04:15:11.443Z,8.20
2018-12-17T04:17:39.464Z,6.08
2018-12-17T04:20:07.631Z,10.60
2018-12-17T04:22:35.652Z,18.30
2018-12-17T04:25:03.770Z,24.45
2018-12-17T04:27:31.859Z,19.55
2018-12-17T04:29:59.973Z,15.70
2018-12-17T04:32:28.006Z,16.17
2018-12-17T04:34:56.042Z,12.80
2018-12-17T04:37:24.062Z,4.15
2018-12-17T04:39:52.103Z,12.73
2018-12-17T04:42:20.136Z,10.72
2018-12-17T04:44:48.176Z,9.83
2018-12-17T04:47:16.206Z,11.93
2018-12-17T04:49:44.244Z,8.30
2018-12-17T04:52:12.286Z,10.10
2018-12-17T04:54:40.325Z,7.60
2018-12-17T04:57:08.353Z,10.20
2018-12-17T04:59:36.470Z,13.30
2018-12-17T05:02:05.601Z,10.13
2018-12-17T05:04:33.697Z,3.65
2018-12-17T05:07:01.744Z,4.95
2018-12-17T05:09:29.877Z,6.15
2018-12-17T05:11:57.955Z,15.43
2018-12-17T05:14:26.034Z,2.25
2018-12-17T05:16:54.078Z,14.43
2018-12-17T05:19:22.099Z,3.47
2018-12-17T05:21:50.171Z,3.95
2018-12-17T05:24:18.199Z,3.30
2018-12-17T05:26:46.238Z,4.55
2018-12-17T05:29:21.406Z,8.83
2018-12-17T05:31:44.287Z,6.40
2018-12-17T05:34:12.331Z,8.30
2018-12-17T05:36:40.518Z,5.70
2018-12-17T05:39:08.617Z,5.53
2018-12-17T05:41:36.679Z,3.47
2018-12-17T05:44:04.775Z,4.80
2018-12-17T05:46:32.838Z,3.02
2018-12-17T05:49:00.878Z,6.45
2018-12-17T05:51:28.894Z,5.50
2018-12-17T05:53:56.943Z,5.95
2018-12-17T05:56:24.974Z,6.42
2018-12-17T06:01:34.509Z,8.48
2018-12-17T06:04:02.637Z,7.97
2018-12-17T06:06:30.670Z,6.70
2018-12-17T06:08:58.715Z,7.55
2018-12-17T06:11:27.555Z,7.45
2018-12-17T06:13:55.702Z,6.58
2018-12-17T06:16:24.077Z,10.72
2018-12-17T06:18:52.118Z,4.15
2018-12-17T06:21:20.210Z,7.45
2018-12-17T06:23:48.331Z,7.03
2018-12-17T06:26:16.370Z,5.35
2018-12-17T06:28:44.426Z,5.78
2018-12-17T06:31:12.478Z,4.92
2018-12-17T06:33:40.535Z,5.35
2018-12-17T06:36:08.645Z,7.47
2018-12-17T06:38:36.717Z,5.33
2018-12-17T06:41:04.771Z,5.55
2018-12-17T06:43:32.927Z,9.25
2018-12-17T06:46:00.974Z,5.28
2018-12-17T06:48:29.045Z,9.70
2018-12-17T06:50:57.176Z,10.05
2018-12-17T06:56:18.261Z,5.05
2018-12-17T06:58:46.478Z,6.95
2018-12-17T07:01:14.550Z,4.62
2018-12-17T07:03:42.647Z,6.67
2018-12-17T07:06:10.734Z,4.08
2018-12-17T07:08:38.819Z,8.45
2018-12-17T07:11:07.108Z,10.25
2018-12-17T07:13:35.181Z,7.70
2018-12-17T07:16:03.258Z,8.43
2018-12-17T07:18:31.313Z,6.90
2018-12-17T07:20:59.364Z,8.95
2018-12-17T07:23:27.491Z,6.83
2018-12-17T07:25:55.593Z,6.37
2018-12-17T07:28:23.689Z,9.28
2018-12-17T07:30:51.784Z,5.28
2018-12-17T07:33:19.824Z,7.25
2018-12-17T07:35:47.938Z,8.95
2018-12-17T07:38:15.971Z,5.22
2018-12-17T07:40:44.065Z,4.90
2018-12-17T07:43:12.098Z,9.00
2018-12-17T07:45:40.201Z,8.55
2018-12-17T07:48:08.301Z,13.13
2018-12-17T07:50:36.370Z,7.55
2018-12-17T07:53:05.022Z,6.12
2018-12-17T07:55:33.673Z,3.27
2018-12-17T07:58:01.717Z,4.95
2018-12-17T08:00:29.757Z,3.50
2018-12-17T08:02:57.802Z,3.77
2018-12-17T08:05:25.922Z,5.30
2018-12-17T08:07:53.970Z,5.28
2018-12-17T08:10:22.002Z,4.15
2018-12-17T08:12:50.060Z,4.12
2018-12-17T08:15:18.093Z,9.55
2018-12-17T08:17:46.218Z,2.55
2018-12-17T08:20:14.254Z,4.62
2018-12-17T08:22:42.974Z,8.70
2018-12-17T08:25:11.217Z,5.83
2018-12-17T08:27:39.267Z,7.15
2018-12-17T08:30:07.706Z,5.27
2018-12-17T08:32:35.826Z,7.40
2018-12-17T08:35:04.008Z,3.77
2018-12-17T08:37:32.119Z,5.70
2018-12-17T08:40:00.150Z,4.30
2018-12-17T08:42:28.203Z,5.20
2018-12-17T08:44:56.239Z,6.23
2018-12-17T08:47:24.294Z,8.00
2018-12-17T08:49:52.372Z,7.73
2018-12-17T08:52:20.426Z,4.67
2018-12-17T08:54:48.538Z,5.70
2018-12-17T08:57:16.575Z,9.10
2018-12-17T08:59:44.682Z,5.77
2018-12-17T09:02:12.723Z,3.10
2018-12-17T09:04:40.834Z,3.73
2018-12-17T09:07:08.989Z,5.03
2018-12-17T09:09:37.031Z,3.60
2018-12-17T09:12:05.123Z,3.17
2018-12-17T09:14:33.249Z,4.67
2018-12-17T09:17:01.398Z,6.60
2018-12-17T09:19:29.501Z,2.70
2018-12-17T09:21:57.598Z,2.13
2018-12-17T09:24:25.934Z,1.90
2018-12-17T09:26:54.209Z,3.00
2018-12-17T09:29:22.306Z,3.27
2018-12-17T09:31:50.334Z,2.90
2018-12-17T09:34:18.370Z,3.03
2018-12-17T09:36:46.482Z,2.03
2018-12-17T09:39:14.525Z,1.60
2018-12-17T09:41:42.599Z,7.27
2018-12-17T09:44:10.701Z,1.93
2018-12-17T09:46:38.893Z,1.10
2018-12-17T09:49:06.933Z,1.00
2018-12-17T09:51:34.970Z,1.67
2018-12-17T09:54:03.083Z,1.00
2018-12-17T09:56:31.195Z,1.03
2018-12-17T09:58:59.294Z,0.90
2018-12-17T10:01:27.398Z,1.00
2018-12-17T10:03:55.575Z,0.90
2018-12-17T10:06:23.733Z,0.90
2018-12-17T10:08:51.764Z,0.70
2018-12-17T10:11:19.877Z,2.37
2018-12-17T10:13:48.010Z,0.70
2018-12-17T10:16:16.049Z,0.97
2018-12-17T10:18:44.085Z,0.70
2018-12-17T10:21:12.141Z,0.90
2018-12-17T10:23:40.331Z,1.10
2018-12-17T10:26:08.647Z,0.72
2018-12-17T10:28:36.742Z,0.77
2018-12-17T10:31:04.863Z,0.73
2018-12-17T10:33:32.906Z,0.50
2018-12-17T10:36:00.939Z,0.53
2018-12-17T10:38:28.969Z,0.50
2018-12-17T10:40:57.011Z,0.80
2018-12-17T10:43:25.046Z,0.70
2018-12-17T10:45:53.087Z,1.17
2018-12-17T10:48:21.182Z,0.70
2018-12-17T10:50:49.235Z,0.60
2018-12-17T10:53:17.266Z,0.53
2018-12-17T10:55:45.299Z,0.70
2018-12-17T10:58:13.338Z,0.67
2018-12-17T11:00:46.646Z,0.70
2018-12-17T11:03:18.485Z,0.63
2018-12-17T11:05:47.191Z,0.90
2018-12-17T11:08:15.213Z,0.70
2018-12-17T11:10:43.311Z,0.50
2018-12-17T11:13:11.590Z,0.70
2018-12-17T11:15:39.610Z,0.80
2018-12-17T11:18:07.720Z,0.73
2018-12-17T11:20:35.823Z,0.50
2018-12-17T11:23:03.862Z,0.70
2018-12-17T11:25:31.889Z,0.80
2018-12-17T11:27:59.977Z,0.60
2018-12-17T11:30:28.199Z,0.67
2018-12-17T11:32:56.359Z,0.97
2018-12-17T11:35:24.509Z,1.10
2018-12-17T11:37:52.595Z,3.60
2018-12-17T11:40:20.693Z,1.33
2018-12-17T11:42:48.801Z,2.00
2018-12-17T11:45:17.005Z,1.83
2018-12-17T11:47:45.100Z,1.97
2018-12-17T11:50:13.128Z,1.17
2018-12-17T11:52:41.162Z,1.13
2018-12-17T11:55:09.347Z,1.30
2018-12-17T11:58:11.342Z,1.63
2018-12-17T12:00:41.552Z,1.80
2018-12-17T12:03:09.619Z,3.30
2018-12-17T12:05:37.637Z,3.83
2018-12-17T12:08:05.987Z,1.93
2018-12-17T12:10:34.067Z,2.23
2018-12-17T12:13:02.165Z,2.17
2018-12-17T12:15:30.199Z,3.20
2018-12-17T12:17:58.223Z,3.80
2018-12-17T12:20:26.315Z,2.40
2018-12-17T12:22:54.409Z,3.33
2018-12-17T12:25:22.542Z,2.60
2018-12-17T12:27:50.576Z,3.30
2018-12-17T12:30:18.669Z,5.40
2018-12-17T12:32:46.841Z,4.23
2018-12-17T12:35:15.035Z,4.20
2018-12-17T12:37:43.067Z,4.00
2018-12-17T12:40:11.166Z,4.80
2018-12-17T12:42:39.187Z,2.90
2018-12-17T12:45:07.492Z,2.57
2018-12-17T12:47:35.518Z,3.87
2018-12-17T12:50:03.946Z,2.77
2018-12-17T12:52:31.978Z,2.57
2018-12-17T12:55:00.077Z,4.23
2018-12-17T12:57:28.102Z,5.80
2018-12-17T12:59:56.132Z,4.40
2018-12-17T13:02:24.155Z,3.50
2018-12-17T13:04:52.206Z,2.57
2018-12-17T13:07:20.323Z,2.90
2018-12-17T13:09:48.342Z,3.30
2018-12-17T13:12:16.425Z,2.87
2018-12-17T13:14:44.602Z,2.43
2018-12-17T13:17:18.115Z,6.20
2018-12-17T13:19:46.207Z,2.73
2018-12-17T13:22:14.266Z,4.13
2018-12-17T13:24:42.287Z,4.20
2018-12-17T13:27:10.313Z,4.73
2018-12-17T13:29:38.342Z,3.33
2018-12-17T13:32:06.431Z,3.43
2018-12-17T13:34:34.596Z,3.73
2018-12-17T13:37:02.773Z,3.23
2018-12-17T13:39:31.503Z,4.70
2018-12-17T13:41:59.542Z,2.80
2018-12-17T13:44:27.578Z,6.00
2018-12-17T13:46:56.173Z,3.13
2018-12-17T13:49:25.477Z,3.57
2018-12-17T13:51:59.348Z,2.40
2018-12-17T13:54:27.998Z,2.57
2018-12-17T13:56:57.124Z,3.87
2018-12-17T13:59:25.910Z,7.30
2018-12-17T14:01:54.579Z,5.13
2018-12-17T14:04:23.203Z,5.50
2018-12-17T14:06:51.815Z,4.53
2018-12-17T14:09:20.453Z,5.00
2018-12-17T14:11:49.083Z,8.50
2018-12-17T14:14:17.974Z,6.87
2018-12-17T14:16:51.784Z,7.70
2018-12-17T14:19:26.984Z,5.00
2018-12-17T14:21:59.254Z,5.63
2018-12-17T14:24:28.424Z,6.30
2018-12-17T14:26:57.169Z,8.63
2018-12-17T14:29:25.780Z,7.60
2018-12-17T14:31:54.463Z,7.10
2018-12-17T14:34:23.117Z,6.47
2018-12-17T14:36:51.828Z,5.90
2018-12-17T14:39:20.469Z,7.33
2018-12-17T14:41:49.160Z,6.80
2018-12-17T14:44:22.777Z,5.53
2018-12-17T14:46:56.926Z,5.20
2018-12-17T14:49:25.486Z,4.53
2018-12-17T14:51:54.113Z,4.67
2018-12-17T14:54:23.721Z,5.93
2018-12-17T14:56:52.331Z,4.70
2018-12-17T14:59:20.952Z,4.60
2018-12-17T15:01:49.588Z,5.37
2018-12-17T15:04:18.207Z,4.80
2018-12-17T15:06:46.641Z,4.13
2018-12-17T15:09:15.417Z,3.60
2018-12-17T15:11:44.086Z,7.53
2018-12-17T15:14:12.751Z,6.33
2018-12-17T15:16:41.338Z,5.87
2018-12-17T15:19:10.011Z,5.47
2018-12-17T15:21:38.577Z,5.20
2018-12-17T15:24:07.144Z,12.10
2018-12-17T15:26:35.815Z,8.87
2018-12-17T15:29:04.638Z,7.93
2018-12-17T15:31:33.134Z,8.20
2018-12-17T15:34:01.922Z,7.43
2018-12-17T15:36:30.572Z,6.00
2018-12-17T15:38:59.328Z,6.03
2018-12-17T15:41:27.954Z,7.97
2018-12-17T15:43:56.434Z,6.83
2018-12-17T15:46:24.821Z,5.03
2018-12-17T15:48:53.470Z,5.20
2018-12-17T15:51:22.159Z,4.63
2018-12-17T15:53:50.727Z,4.23
2018-12-17T15:56:19.369Z,3.90
2018-12-17T15:58:48.041Z,5.40
2018-12-17T16:01:16.700Z,3.07
2018-12-17T16:03:45.345Z,3.00
2018-12-17T16:06:14.055Z,2.80
2018-12-17T16:08:43.116Z,2.50
2018-12-17T16:11:11.755Z,2.37
2018-12-17T16:13:40.326Z,3.63
2018-12-17T16:16:09.114Z,2.30
2018-12-17T16:18:37.913Z,4.07
2018-12-17T16:21:06.591Z,3.08
2018-12-17T16:23:35.305Z,3.72
2018-12-17T16:26:03.881Z,5.47
2018-12-17T16:28:32.603Z,6.85
2018-12-17T16:31:01.252Z,8.17
2018-12-17T16:33:30.273Z,10.40
2018-12-17T16:35:59.084Z,1.90
2018-12-17T16:38:27.618Z,4.70
2018-12-17T16:40:56.275Z,11.78
2018-12-17T16:43:24.950Z,5.15
2018-12-17T16:45:53.866Z,6.15
2018-12-17T16:48:22.833Z,8.55
2018-12-17T16:50:51.494Z,9.63
2018-12-17T16:53:20.421Z,15.18
2018-12-17T16:55:49.060Z,5.95
2018-12-17T16:58:17.777Z,10.72
2018-12-17T17:00:46.845Z,4.10
2018-12-17T17:03:15.429Z,10.00
2018-12-17T17:05:44.313Z,3.83
2018-12-17T17:08:13.116Z,5.55
2018-12-17T17:10:42.051Z,4.65
2018-12-17T17:13:10.640Z,3.80
2018-12-17T17:15:39.746Z,3.90
2018-12-17T17:18:09.641Z,3.25
2018-12-17T17:20:38.420Z,2.55
2018-12-17T17:23:07.125Z,3.12
2018-12-17T17:25:35.779Z,3.40
2018-12-17T17:28:04.508Z,5.78
2018-12-17T17:30:33.176Z,3.83
2018-12-17T17:33:01.811Z,5.05
2018-12-17T17:35:30.560Z,4.70
2018-12-17T17:37:59.206Z,5.62
2018-12-17T17:40:27.874Z,8.48
2018-12-17T17:42:56.171Z,6.28
2018-12-17T17:45:24.529Z,9.78
2018-12-17T17:47:52.570Z,9.70
2018-12-17T17:50:20.732Z,6.85
2018-12-17T17:52:48.764Z,7.50
2018-12-17T17:55:16.824Z,6.80
2018-12-17T17:57:44.857Z,8.90
2018-12-17T18:00:13.193Z,12.57
2018-12-17T18:02:41.220Z,16.70
2018-12-17T18:05:12.586Z,16.10
2018-12-17T18:07:40.619Z,14.90
2018-12-17T18:10:09.322Z,17.97
2018-12-17T18:12:37.378Z,11.07
2018-12-17T18:15:06.173Z,12.58
2018-12-17T18:17:34.206Z,18.50
2018-12-17T18:20:02.224Z,15.37
2018-12-17T18:22:30.337Z,15.97
2018-12-17T18:24:58.396Z,16.13
2018-12-17T18:27:26.412Z,14.93
2018-12-17T18:29:54.506Z,25.10
2018-12-17T18:32:25.851Z,23.80
2018-12-17T18:34:52.672Z,19.30
2018-12-17T18:37:20.761Z,27.03
2018-12-17T18:39:48.795Z,29.87
2018-12-17T18:42:16.832Z,32.70
2018-12-17T18:44:44.863Z,24.00
2018-12-17T18:47:12.909Z,19.37
2018-12-17T18:49:40.999Z,22.37
2018-12-17T18:52:09.059Z,23.40
2018-12-17T18:54:37.140Z,25.87
2018-12-17T18:57:05.300Z,27.80
2018-12-17T18:59:33.337Z,27.40
2018-12-17T19:02:01.442Z,22.20
2018-12-17T19:04:29.469Z,32.67
2018-12-17T19:06:57.501Z,31.40
2018-12-17T19:09:25.610Z,25.80
2018-12-17T19:11:53.638Z,30.30
2018-12-17T19:14:21.778Z,31.60
2018-12-17T19:16:50.050Z,29.30
2018-12-17T19:19:18.081Z,31.07
2018-12-17T19:21:46.201Z,28.00
2018-12-17T19:24:14.365Z,28.13
2018-12-17T19:26:42.632Z,35.63
2018-12-17T19:29:10.678Z,36.20
2018-12-17T19:31:38.709Z,34.10
2018-12-17T19:34:06.810Z,47.33
2018-12-17T19:36:34.842Z,37.10
2018-12-17T19:39:02.949Z,35.70
2018-12-17T19:41:30.972Z,38.33
2018-12-17T19:43:59.027Z,36.30
2018-12-17T19:46:27.121Z,35.40
2018-12-17T19:48:55.230Z,34.30
2018-12-17T19:51:23.342Z,39.50
2018-12-17T19:53:51.413Z,42.30
2018-12-17T19:56:19.541Z,33.63
2018-12-17T19:58:47.571Z,42.07
2018-12-17T20:01:15.705Z,42.13
2018-12-17T20:03:43.732Z,32.70
2018-12-17T20:06:11.833Z,33.67
2018-12-17T20:08:39.878Z,37.37
2018-12-17T20:11:07.973Z,42.87
2018-12-17T20:13:36.068Z,39.40
2018-12-17T20:16:04.167Z,41.07
2018-12-17T20:18:32.231Z,37.87
2018-12-17T20:21:00.297Z,34.33
2018-12-17T20:23:28.439Z,33.17
2018-12-17T20:25:56.465Z,27.67
2018-12-17T20:28:24.540Z,43.47
2018-12-17T20:30:52.564Z,41.77
2018-12-17T20:33:20.584Z,31.73
2018-12-17T20:35:48.636Z,31.67
2018-12-17T20:38:16.735Z,35.00
2018-12-17T20:40:44.820Z,37.87
2018-12-17T20:43:12.848Z,31.13
2018-12-17T20:45:40.958Z,42.73
2018-12-17T20:48:08.981Z,34.57
2018-12-17T20:50:37.017Z,30.30
2018-12-17T20:53:05.097Z,33.97
2018-12-17T20:55:33.114Z,31.87
2018-12-17T20:58:01.166Z,29.73
2018-12-17T21:00:29.197Z,35.13
2018-12-17T21:03:00.291Z,32.10
2018-12-17T21:05:27.325Z,30.33
2018-12-17T21:07:55.760Z,38.50
2018-12-17T21:10:24.116Z,28.60
2018-12-17T21:12:52.776Z,31.40
2018-12-17T21:15:20.826Z,37.13
2018-12-17T21:17:48.848Z,32.63
2018-12-17T21:20:16.873Z,31.53
2018-12-17T21:22:44.960Z,30.60
2018-12-17T21:25:13.115Z,32.13
2018-12-17T21:27:41.308Z,37.70
2018-12-17T21:30:09.882Z,30.70
2018-12-17T21:32:37.971Z,26.93
2018-12-17T21:35:06.429Z,29.50
2018-12-17T21:37:34.694Z,36.73
2018-12-17T21:40:02.803Z,39.07
2018-12-17T21:42:30.829Z,31.10
2018-12-17T21:44:58.868Z,32.70
2018-12-17T21:47:26.945Z,30.17
2018-12-17T21:49:54.998Z,38.10
2018-12-17T21:52:23.018Z,35.20
2018-12-17T21:54:51.129Z,28.90
2018-12-17T21:57:19.162Z,24.57
2018-12-17T21:59:47.270Z,28.57
2018-12-17T22:02:15.296Z,23.70
2018-12-17T22:04:43.415Z,34.90
2018-12-17T22:07:11.442Z,29.80
2018-12-17T22:09:39.465Z,24.83
2018-12-17T22:12:07.561Z,29.07
2018-12-17T22:14:35.666Z,28.53
2018-12-17T22:17:03.764Z,25.67
2018-12-17T22:19:31.780Z,28.67
2018-12-17T22:21:59.970Z,27.13
2018-12-17T22:24:27.997Z,26.40
2018-12-17T22:26:56.030Z,26.17
2018-12-17T22:29:24.073Z,31.48
2018-12-17T22:31:52.121Z,22.53
2018-12-17T22:34:20.144Z,29.33
2018-12-17T22:36:48.401Z,29.80
2018-12-17T22:39:16.435Z,25.03
2018-12-17T22:41:44.520Z,17.20
2018-12-17T22:44:12.557Z,26.53
2018-12-17T22:46:40.641Z,27.77
2018-12-17T22:49:08.703Z,33.00
2018-12-17T22:51:36.717Z,25.70
2018-12-17T22:54:04.825Z,17.07
2018-12-17T22:56:32.931Z,19.50
2018-12-17T22:59:01.049Z,26.70
2018-12-17T23:01:29.125Z,33.87
2018-12-17T23:03:57.180Z,22.10
2018-12-17T23:06:25.196Z,27.93
2018-12-17T23:09:02.645Z,32.13
2018-12-17T23:11:47.450Z,21.00
2018-12-17T23:14:26.907Z,20.47
2018-12-17T23:17:06.462Z,18.10
2018-12-17T23:19:41.275Z,29.30
2018-12-17T23:22:09.377Z,20.00
2018-12-17T23:24:37.758Z,19.20
2018-12-17T23:27:05.932Z,21.00
2018-12-17T23:29:34.107Z,21.67
2018-12-17T23:32:02.362Z,22.03
2018-12-17T23:34:30.436Z,20.20
2018-12-17T23:36:58.589Z,18.40
2018-12-17T23:39:26.601Z,20.77
2018-12-17T23:41:54.713Z,16.63
2018-12-17T23:44:22.841Z,24.57
2018-12-17T23:46:50.877Z,21.97
2018-12-17T23:49:18.908Z,23.97
2018-12-17T23:51:47.070Z,22.43
2018-12-17T23:54:15.092Z,22.20
2018-12-17T23:56:43.203Z,18.03
2018-12-17T23:59:11.248Z,21.07
